Terminal Aerodrome Forecast
Issued by NWS

Home | Current Version | Previous Version | Text Only | Print | Product List | Glossary On
Versions: 1 2 3 4 5 6 7 8 9 10 11 12 13 14 15 16 17 18 19 20 21 22 23 24 25 26 27 28 29 30 31
000
FTUS42 KTBW 271124
TAFPGD
TAF
KPGD 271124Z 2712/2812 20010KT P6SM SCT020 BKN120
     FM271600 24016G27KT P6SM SHRA VCTS BKN020CB
     FM272200 28015G25KT P6SM SCT025 BKN035
     FM280400 30011KT P6SM SCT035 BKN250
     FM280900 34008KT P6SM SCT035=

USA.gov is the U.S. government's official web portal to all federal, state and local government web resources and services.